Time;durP1;ratioP1;P1;durP2;ratioP2;P2;SDS_P1;SDS_P2;PMS_P1;PMS_P2;Temp;Humidity;BMP_temperature;BMP_pressure;BME280_temperature;BME280_humidity;BME280_pressure;Samples;Min_cycle;Max_cycle;Signal;HPM_P1;HPM_P2
2022/04/01 00:01:04;;;;;;;16.00;4.30;;;17.80;93.80;;;;;;5048836;28;20446;-67
2022/04/01 00:03:31;;;;;;;15.80;4.20;;;17.60;94.50;;;;;;5048261;28;20494;-67
2022/04/01 00:06:01;;;;;;;10.50;3.13;;;17.40;95.20;;;;;;5048609;28;20519;-67
2022/04/01 00:08:28;;;;;;;10.73;3.10;;;17.50;95.60;;;;;;5048235;28;21000;-68
2022/04/01 00:10:55;;;;;;;14.50;2.70;;;17.50;96.50;;;;;;5048279;28;20488;-68
2022/04/01 00:13:23;;;;;;;11.07;4.27;;;17.40;96.80;;;;;;5048113;28;20485;-67
2022/04/01 00:15:50;;;;;;;9.47;2.50;;;17.40;97.30;;;;;;5048440;28;20545;-68
2022/04/01 00:18:19;;;;;;;9.30;3.00;;;17.40;97.30;;;;;;5048033;28;20453;-68
2022/04/01 00:20:46;;;;;;;7.40;2.20;;;17.30;98.10;;;;;;5048369;28;20934;-68
2022/04/01 00:23:14;;;;;;;6.90;2.00;;;17.20;98.60;;;;;;5048277;28;21052;-68
2022/04/01 00:25:43;;;;;;;7.80;1.73;;;17.10;98.80;;;;;;5048371;28;20484;-68
2022/04/01 00:28:10;;;;;;;5.50;1.40;;;17.10;99.10;;;;;;5048487;28;20552;-67
2022/04/01 00:30:38;;;;;;;5.70;1.40;;;17.10;99.90;;;;;;5048313;28;20567;-67
2022/04/01 00:33:08;;;;;;;6.30;1.30;;;17.00;99.90;;;;;;5048283;28;20478;-68
2022/04/01 00:35:36;;;;;;;6.77;1.67;;;16.90;99.90;;;;;;5051766;28;20545;-69
2022/04/01 00:38:04;;;;;;;4.50;1.53;;;16.70;99.90;;;;;;5051800;28;20460;-67
2022/04/01 00:40:31;;;;;;;6.40;1.87;;;16.70;99.90;;;;;;5051790;28;20499;-67
2022/04/01 00:42:58;;;;;;;5.30;2.23;;;16.60;99.90;;;;;;5051815;28;20511;-67
2022/04/01 00:45:25;;;;;;;9.63;1.67;;;16.60;99.90;;;;;;5051580;28;20442;-67
2022/04/01 00:47:54;;;;;;;11.73;1.80;;;16.60;99.90;;;;;;5051355;28;20477;-67
2022/04/01 00:50:22;;;;;;;7.67;1.80;;;16.50;99.90;;;;;;5051442;28;20453;-67
2022/04/01 00:52:52;;;;;;;7.80;2.10;;;16.50;99.90;;;;;;5051581;28;20474;-66
2022/04/01 00:55:19;;;;;;;8.53;2.40;;;16.40;99.90;;;;;;5051635;28;20457;-67
2022/04/01 00:57:48;;;;;;;11.20;2.27;;;16.40;99.90;;;;;;5051762;28;20480;-67
2022/04/01 01:00:17;;;;;;;5.90;1.90;;;16.30;99.90;;;;;;5051489;28;20466;-68
2022/04/01 01:02:44;;;;;;;6.43;1.87;;;16.40;99.90;;;;;;5051080;28;20497;-67
2022/04/01 01:05:12;;;;;;;11.37;2.20;;;16.50;99.90;;;;;;5051354;28;20456;-67
2022/04/01 01:07:42;;;;;;;11.63;2.63;;;16.50;99.90;;;;;;5051307;28;20462;-68
2022/04/01 01:10:14;;;;;;;9.10;2.27;;;16.40;99.90;;;;;;5051312;28;20493;-68
2022/04/01 01:12:43;;;;;;;11.30;3.23;;;16.30;99.90;;;;;;5051287;28;20466;-69
2022/04/01 01:15:13;;;;;;;12.43;3.03;;;16.20;99.90;;;;;;5051495;28;20456;-67
2022/04/01 01:17:40;;;;;;;9.03;3.03;;;16.10;99.90;;;;;;5051296;28;20714;-68
2022/04/01 01:20:12;;;;;;;10.90;3.33;;;16.20;99.90;;;;;;5051251;28;20454;-68
2022/04/01 01:22:40;;;;;;;7.70;2.07;;;16.10;99.90;;;;;;5050878;28;20470;-67
2022/04/01 01:25:11;;;;;;;9.87;2.33;;;16.20;99.90;;;;;;5051058;28;20454;-67
2022/04/01 01:27:38;;;;;;;12.90;3.53;;;15.90;99.90;;;;;;5051065;28;20520;-68
2022/04/01 01:30:07;;;;;;;13.87;5.70;;;15.80;99.90;;;;;;5050892;28;20445;-67
2022/04/01 01:32:35;;;;;;;33.10;7.43;;;15.60;99.90;;;;;;5050333;28;20510;-67
2022/04/01 01:35:03;;;;;;;18.83;4.60;;;15.70;99.90;;;;;;5050975;28;20938;-68
2022/04/01 01:37:30;;;;;;;35.53;8.90;;;15.80;99.90;;;;;;5050560;28;20543;-67
2022/04/01 01:39:58;;;;;;;44.47;10.13;;;15.90;99.90;;;;;;5050672;28;20950;-68
2022/04/01 01:42:27;;;;;;;32.93;10.17;;;16.00;99.90;;;;;;5050506;28;20853;-68
2022/04/01 01:44:54;;;;;;;45.00;11.40;;;16.10;99.90;;;;;;5050138;28;20486;-67
2022/04/01 01:47:21;;;;;;;37.40;11.00;;;16.30;98.80;;;;;;5049803;28;20450;-67
2022/04/01 01:55:16;;;;;;;45.63;11.80;;;16.60;96.60;;;;;;5032614;28;20453;-68
2022/04/01 01:57:44;;;;;;;52.47;10.20;;;16.60;96.80;;;;;;5050560;28;20553;-68
2022/04/01 02:00:12;;;;;;;47.13;10.30;;;16.70;95.80;;;;;;5050440;28;20454;-67
2022/04/01 02:02:39;;;;;;;47.17;10.80;;;16.80;95.60;;;;;;5049890;28;20466;-67
2022/04/01 02:05:07;;;;;;;43.03;11.93;;;16.70;95.70;;;;;;5050441;28;20653;-67
2022/04/01 02:07:36;;;;;;;53.40;9.90;;;16.80;95.80;;;;;;5050029;28;20969;-68
2022/04/01 02:10:03;;;;;;;20.10;6.50;;;16.80;96.50;;;;;;5050188;28;20911;-68
2022/04/01 02:12:31;;;;;;;46.63;10.97;;;16.70;98.80;;;;;;5050046;28;20450;-68
2022/04/01 02:15:02;;;;;;;45.33;10.90;;;16.50;97.10;;;;;;5050134;28;20512;-67
2022/04/01 02:17:31;;;;;;;49.73;11.77;;;16.60;96.40;;;;;;5050055;28;20460;-67
2022/04/01 02:19:58;;;;;;;33.97;9.87;;;16.60;95.40;;;;;;5049741;28;20962;-68
2022/04/01 02:22:26;;;;;;;47.72;13.05;;;16.70;95.10;;;;;;5049505;28;20804;-67
2022/04/01 02:24:53;;;;;;;46.33;12.00;;;16.70;95.30;;;;;;5048640;28;20523;-67
2022/04/01 02:27:20;;;;;;;50.85;12.90;;;16.70;95.20;;;;;;5049042;28;20432;-69
2022/04/01 02:29:48;;;;;;;45.97;11.03;;;16.70;95.00;;;;;;5049792;28;20398;-68
2022/04/01 02:32:16;;;;;;;44.43;10.40;;;16.80;94.70;;;;;;5049548;28;20768;-68
2022/04/01 02:34:43;;;;;;;51.93;12.13;;;16.90;94.60;;;;;;5049808;28;20508;-67
2022/04/01 02:37:10;;;;;;;54.55;13.00;;;17.00;94.00;;;;;;5048380;28;20451;-67
2022/04/01 02:39:38;;;;;;;51.17;12.67;;;16.90;93.50;;;;;;5049975;28;20214;-67
2022/04/01 02:42:05;;;;;;;54.17;13.10;;;17.00;93.10;;;;;;5047901;28;20475;-68
2022/04/01 02:44:33;;;;;;;52.35;14.25;;;17.00;92.50;;;;;;5049045;28;20466;-68
2022/04/01 02:47:00;;;;;;;59.00;14.60;;;17.10;92.40;;;;;;5049243;28;20211;-68
2022/04/01 02:49:29;;;;;;;47.22;12.85;;;17.10;92.10;;;;;;5048166;28;20466;-67
2022/04/01 02:51:56;;;;;;;47.97;12.63;;;17.10;91.90;;;;;;5049611;28;20545;-67
2022/04/01 02:54:23;;;;;;;53.83;12.20;;;17.20;92.20;;;;;;5048860;28;20448;-66
2022/04/01 02:56:50;;;;;;;54.60;13.37;;;17.20;91.50;;;;;;5049509;28;20582;-67
2022/04/01 02:59:17;;;;;;;48.43;13.63;;;17.20;91.30;;;;;;5049577;28;20457;-68
2022/04/01 03:01:45;;;;;;;52.93;12.87;;;17.20;91.20;;;;;;5048260;28;20499;-68
2022/04/01 03:04:12;;;;;;;54.33;13.75;;;17.20;91.50;;;;;;5049009;28;20988;-68
2022/04/01 03:06:43;;;;;;;49.57;13.20;;;17.20;90.90;;;;;;5049420;28;20211;-68
2022/04/01 03:09:10;;;;;;;48.50;13.00;;;17.30;90.80;;;;;;5049169;28;20697;-68
2022/04/01 03:11:38;;;;;;;52.97;14.70;;;17.30;90.40;;;;;;5048514;28;20451;-67
2022/04/01 03:14:08;;;;;;;53.20;12.93;;;17.30;90.30;;;;;;5049125;28;20250;-68
2022/04/01 03:16:36;;;;;;;60.63;12.27;;;17.30;90.30;;;;;;5048954;28;20455;-68
2022/04/01 03:19:03;;;;;;;79.70;12.97;;;17.40;90.20;;;;;;5048890;28;20545;-66
2022/04/01 03:21:30;;;;;;;54.60;14.05;;;17.30;90.20;;;;;;5047946;28;20444;-66
2022/04/01 03:24:00;;;;;;;56.87;14.00;;;17.30;90.10;;;;;;5048558;28;20234;-67
2022/04/01 03:26:28;;;;;;;46.37;11.70;;;17.30;90.10;;;;;;5049094;28;20449;-67
2022/04/01 03:28:55;;;;;;;53.53;12.53;;;17.30;90.40;;;;;;5049131;28;20461;-66
2022/04/01 03:31:25;;;;;;;51.57;13.80;;;17.30;90.70;;;;;;5048749;28;20539;-68
2022/04/01 03:33:52;;;;;;;58.90;13.50;;;17.30;89.30;;;;;;5048911;28;20467;-68
2022/04/01 03:36:19;;;;;;;59.80;15.37;;;17.40;87.90;;;;;;5049058;28;20781;-66
2022/04/01 03:38:47;;;;;;;44.27;11.10;;;17.50;87.20;;;;;;5048691;28;20533;-67
2022/04/01 03:41:17;;;;;;;48.43;12.80;;;17.40;89.60;;;;;;5048331;28;20515;-71
2022/04/01 03:43:44;;;;;;;31.33;10.60;;;17.50;92.10;;;;;;5048344;28;20538;-68
2022/04/01 03:46:14;;;;;;;37.53;11.30;;;17.40;93.00;;;;;;5048770;28;20790;-68
2022/04/01 03:48:45;;;;;;;38.73;11.53;;;17.20;93.60;;;;;;5048613;28;20489;-69
2022/04/01 03:51:17;;;;;;;37.10;12.40;;;17.10;94.10;;;;;;5048907;28;20457;-69
2022/04/01 03:53:54;;;;;;;48.57;11.97;;;16.90;94.80;;;;;;5048493;28;20934;-70
2022/04/01 03:56:29;;;;;;;37.30;10.90;;;16.70;95.60;;;;;;5048931;28;20549;-68
2022/04/01 03:59:01;;;;;;;36.80;9.93;;;16.70;96.00;;;;;;5048599;28;20792;-68
2022/04/01 04:01:29;;;;;;;32.43;8.73;;;16.80;96.00;;;;;;5048716;28;20457;-68
2022/04/01 04:04:00;;;;;;;33.17;10.80;;;16.80;96.50;;;;;;5048633;28;20520;-69
2022/04/01 04:06:27;;;;;;;33.73;10.10;;;16.50;97.20;;;;;;5048471;28;20461;-69
2022/04/01 04:08:56;;;;;;;38.20;10.33;;;16.40;98.60;;;;;;5049640;28;20453;-70
2022/04/01 04:11:28;;;;;;;41.87;8.83;;;16.40;99.90;;;;;;5052384;28;20465;-69
2022/04/01 04:13:56;;;;;;;41.73;10.70;;;16.40;99.90;;;;;;5052220;28;20527;-69
2022/04/01 04:16:29;;;;;;;36.97;10.90;;;16.40;99.90;;;;;;5052713;28;20536;-69
2022/04/01 04:19:03;;;;;;;42.80;9.43;;;16.30;99.90;;;;;;5052462;28;20818;-69
2022/04/01 04:21:31;;;;;;;29.90;9.80;;;16.40;99.90;;;;;;5051966;28;20906;-69
2022/04/01 04:23:59;;;;;;;34.13;8.37;;;16.40;99.90;;;;;;5052207;28;20490;-68
2022/04/01 04:26:35;;;;;;;41.83;9.83;;;16.40;99.90;;;;;;5052412;28;20793;-69
2022/04/01 04:29:08;;;;;;;42.47;10.73;;;16.40;99.90;;;;;;5052163;28;20515;-70
2022/04/01 04:31:36;;;;;;;39.20;12.87;;;16.30;99.90;;;;;;5051938;28;20972;-70
2022/04/01 04:34:05;;;;;;;42.07;10.40;;;16.30;99.90;;;;;;5051827;28;20474;-81
2022/04/01 04:36:38;;;;;;;33.50;9.00;;;16.20;99.90;;;;;;5051868;28;21007;-74
2022/04/01 04:39:07;;;;;;;48.23;12.00;;;15.90;99.90;;;;;;5051922;28;20788;-76
2022/04/01 04:41:35;;;;;;;40.37;11.70;;;15.90;99.90;;;;;;5051828;28;20457;-76
2022/04/01 04:44:03;;;;;;;39.00;10.30;;;16.10;99.90;;;;;;5051524;28;20496;-74
2022/04/01 04:46:32;;;;;;;37.33;9.23;;;16.20;99.90;;;;;;5051893;28;20540;-76
2022/04/01 04:48:59;;;;;;;35.60;10.33;;;16.30;99.90;;;;;;5051420;28;20517;-80
2022/04/01 04:51:28;;;;;;;34.60;11.27;;;16.40;99.90;;;;;;5051941;28;20468;-77
2022/04/01 04:53:59;;;;;;;48.57;10.93;;;16.40;99.90;;;;;;5051966;28;20549;-76
2022/04/01 04:56:27;;;;;;;36.87;10.40;;;16.30;99.90;;;;;;5052062;28;20461;-78
2022/04/01 04:58:56;;;;;;;40.77;12.30;;;16.40;99.90;;;;;;5051800;28;20442;-79
2022/04/01 05:01:34;;;;;;;37.00;10.00;;;16.40;99.90;;;;;;5051680;28;20456;-80
2022/04/01 05:04:42;;;;;;;32.30;10.07;;;16.50;99.90;;;;;;5051562;28;20497;-70
2022/04/01 05:07:18;;;;;;;40.77;10.90;;;16.50;99.90;;;;;;5051414;28;20456;-69
2022/04/01 05:09:54;;;;;;;38.60;12.83;;;16.60;99.90;;;;;;5050979;28;20504;-70
2022/04/01 05:12:31;;;;;;;50.10;11.20;;;16.60;99.90;;;;;;5051335;28;20815;-68
2022/04/01 05:15:08;;;;;;;42.53;12.00;;;16.50;99.90;;;;;;5051351;28;20810;-69
2022/04/01 05:17:38;;;;;;;37.50;11.50;;;16.40;99.90;;;;;;5051523;28;20987;-68
2022/04/01 05:20:15;;;;;;;45.67;17.07;;;16.50;99.90;;;;;;5051043;28;20457;-70
2022/04/01 05:22:54;;;;;;;42.77;16.80;;;16.50;99.90;;;;;;5050451;28;20835;-70
2022/04/01 05:25:25;;;;;;;45.03;11.63;;;16.60;99.90;;;;;;5050857;28;20555;-71
2022/04/01 05:27:53;;;;;;;47.03;9.80;;;16.70;99.90;;;;;;5050799;28;20456;-69
2022/04/01 05:30:25;;;;;;;45.50;10.87;;;16.60;99.90;;;;;;5050963;28;20463;-69
2022/04/01 05:33:01;;;;;;;34.27;9.77;;;16.60;99.90;;;;;;5050738;28;20484;-70
2022/04/01 05:35:31;;;;;;;39.40;11.10;;;16.50;99.90;;;;;;5050834;28;20441;-70
2022/04/01 05:37:59;;;;;;;33.20;9.03;;;16.50;99.90;;;;;;5050519;28;20817;-69
2022/04/01 05:40:27;;;;;;;41.40;10.57;;;16.60;99.90;;;;;;5050459;28;20462;-71
2022/04/01 05:42:56;;;;;;;38.30;10.77;;;16.60;99.90;;;;;;5050369;28;20470;-71
2022/04/01 05:45:27;;;;;;;33.07;9.60;;;16.60;99.90;;;;;;5050511;28;20490;-70
2022/04/01 05:47:55;;;;;;;37.17;9.87;;;16.30;99.90;;;;;;5050829;28;20489;-71
2022/04/01 05:50:23;;;;;;;47.30;10.67;;;16.30;99.90;;;;;;5050410;28;20454;-69
2022/04/01 05:52:53;;;;;;;45.10;9.90;;;16.40;99.90;;;;;;5050357;28;20480;-73
2022/04/01 05:55:23;;;;;;;36.23;10.30;;;16.30;99.90;;;;;;5050433;28;20457;-75
2022/04/01 05:57:51;;;;;;;37.57;10.50;;;16.30;99.90;;;;;;5050335;28;20545;-73
2022/04/01 06:00:18;;;;;;;40.93;10.70;;;16.30;99.90;;;;;;5050373;28;20985;-72
2022/04/01 06:03:16;;;;;;;42.47;11.37;;;16.40;99.90;;;;;;5050299;28;20501;-70
2022/04/01 06:05:48;;;;;;;36.60;11.30;;;16.50;99.90;;;;;;5046624;28;20494;-69
2022/04/01 06:08:23;;;;;;;37.77;12.97;;;16.40;99.90;;;;;;5048966;28;20449;-71
2022/04/01 06:11:02;;;;;;;35.10;10.33;;;16.30;99.90;;;;;;5050377;28;20461;-70
2022/04/01 06:13:40;;;;;;;43.93;12.97;;;16.10;99.90;;;;;;5049814;28;20564;-71
2022/04/01 06:16:20;;;;;;;43.70;12.17;;;16.10;99.90;;;;;;5049872;28;20891;-72
2022/04/01 06:18:54;;;;;;;40.00;11.07;;;16.20;99.90;;;;;;5049991;28;20952;-74
2022/04/01 06:21:24;;;;;;;40.53;11.00;;;16.30;99.90;;;;;;5049128;28;20938;-72
2022/04/01 06:24:06;;;;;;;48.75;12.63;;;16.50;99.90;;;;;;5048926;28;20448;-70
2022/04/01 06:26:39;;;;;;;38.37;13.00;;;16.70;99.90;;;;;;5050035;28;20199;-75
2022/04/01 06:29:17;;;;;;;46.13;14.17;;;16.90;99.90;;;;;;5049946;28;20504;-70
2022/04/01 06:31:49;;;;;;;48.23;12.60;;;17.10;99.90;;;;;;5049375;28;20445;-72
2022/04/01 06:34:22;;;;;;;40.27;13.13;;;17.10;99.90;;;;;;5049433;28;20532;-70
2022/04/01 06:36:52;;;;;;;43.60;12.20;;;17.30;99.90;;;;;;5049282;28;20811;-68
2022/04/01 06:39:31;;;;;;;48.80;11.20;;;17.40;99.90;;;;;;5049459;28;20454;-69
2022/04/01 06:42:00;;;;;;;40.70;11.30;;;17.60;99.90;;;;;;5049548;28;20461;-72
2022/04/01 06:44:27;;;;;;;38.80;11.10;;;17.60;99.70;;;;;;5049337;28;20476;-72
2022/04/01 06:46:54;;;;;;;40.23;10.40;;;17.60;99.10;;;;;;5049505;28;20481;-72
2022/04/01 06:49:23;;;;;;;46.20;11.40;;;17.70;99.10;;;;;;5048958;28;20497;-76
2022/04/01 06:51:50;;;;;;;40.03;11.60;;;17.90;98.80;;;;;;5049830;28;20532;-74
2022/04/01 06:54:17;;;;;;;40.67;11.33;;;17.90;98.40;;;;;;5049549;28;20465;-71
2022/04/01 06:56:44;;;;;;;39.47;11.83;;;18.00;98.00;;;;;;5050078;28;20453;-73
2022/04/01 06:59:11;;;;;;;39.33;10.10;;;18.10;97.60;;;;;;5049333;28;20843;-71
2022/04/01 07:01:38;;;;;;;39.80;11.80;;;18.30;97.20;;;;;;5049352;28;20446;-72
2022/04/01 07:04:05;;;;;;;43.70;11.50;;;18.50;96.30;;;;;;5048988;28;20565;-71
2022/04/01 07:06:34;;;;;;;36.27;12.50;;;18.40;95.80;;;;;;5049160;28;20486;-72
2022/04/01 07:09:01;;;;;;;43.43;12.80;;;18.60;95.80;;;;;;5049194;28;20454;-72
2022/04/01 07:11:28;;;;;;;54.50;11.07;;;18.90;95.60;;;;;;5049162;28;20508;-72
2022/04/01 07:13:55;;;;;;;46.77;11.70;;;19.20;94.60;;;;;;5048500;28;20474;-71
2022/04/01 07:16:23;;;;;;;39.73;11.93;;;19.50;93.50;;;;;;5048818;28;20442;-72
2022/04/01 07:18:50;;;;;;;38.97;11.77;;;19.60;93.40;;;;;;5048858;28;20722;-74
2022/04/01 07:21:17;;;;;;;45.63;11.97;;;19.80;92.80;;;;;;5048575;28;20801;-72
2022/04/01 07:23:46;;;;;;;52.87;14.33;;;20.10;91.70;;;;;;5048813;28;20481;-72
2022/04/01 07:26:13;;;;;;;36.87;12.57;;;20.40;90.80;;;;;;5048880;28;20733;-74
2022/04/01 07:28:40;;;;;;;49.77;11.33;;;20.50;90.80;;;;;;5048809;28;20451;-72
2022/04/01 07:33:48;;;;;;;46.03;11.60;;;20.90;87.50;;;;;;5048701;28;20781;-73
2022/04/01 07:36:15;;;;;;;39.73;10.87;;;21.10;86.70;;;;;;5048856;28;20735;-73
2022/04/01 07:38:43;;;;;;;37.40;10.70;;;21.30;85.10;;;;;;5048724;28;20450;-72
2022/04/01 07:41:11;;;;;;;46.60;11.40;;;21.50;83.90;;;;;;5048946;28;20853;-73
2022/04/01 07:43:38;;;;;;;46.17;12.20;;;21.60;82.20;;;;;;5048919;28;20561;-75
2022/04/01 07:46:05;;;;;;;36.30;10.50;;;21.80;81.10;;;;;;5052257;28;20523;-74
2022/04/01 07:48:33;;;;;;;35.07;9.87;;;21.90;80.00;;;;;;5051954;28;20489;-74
2022/04/01 07:51:00;;;;;;;63.10;12.13;;;22.00;79.40;;;;;;5052415;28;20458;-74
2022/04/01 07:53:27;;;;;;;38.33;10.90;;;22.00;78.00;;;;;;5052602;28;20870;-74
2022/04/01 07:55:54;;;;;;;44.30;11.33;;;22.30;77.80;;;;;;5052535;28;21307;-73
2022/04/01 07:58:22;;;;;;;41.43;11.90;;;22.40;75.80;;;;;;5052758;28;20572;-76
2022/04/01 08:00:49;;;;;;;48.90;13.60;;;22.50;75.40;;;;;;5052691;28;20449;-75
2022/04/01 08:03:16;;;;;;;46.50;11.37;;;22.70;74.00;;;;;;5052453;28;20477;-78
2022/04/01 08:05:43;;;;;;;52.73;13.60;;;22.80;72.70;;;;;;5052577;28;20500;-77
2022/04/01 08:08:10;;;;;;;41.53;11.60;;;22.70;71.10;;;;;;5052304;28;20477;-73
2022/04/01 08:10:37;;;;;;;51.33;13.00;;;22.20;69.80;;;;;;5052361;28;20885;-75
2022/04/01 08:13:05;;;;;;;51.80;11.07;;;21.70;72.50;;;;;;5052531;28;20525;-74
2022/04/01 08:15:33;;;;;;;46.17;11.03;;;21.30;68.00;;;;;;5052307;28;20977;-74
2022/04/01 08:18:02;;;;;;;38.43;10.53;;;20.90;66.30;;;;;;5052472;28;20453;-73
2022/04/01 08:20:29;;;;;;;51.63;13.70;;;20.70;66.00;;;;;;5051887;28;20449;-72
2022/04/01 08:22:56;;;;;;;42.20;11.83;;;20.70;66.80;;;;;;5051713;28;20766;-73
2022/04/01 08:25:23;;;;;;;60.07;12.13;;;20.60;66.50;;;;;;5052110;28;20485;-75
2022/04/01 08:27:50;;;;;;;46.63;12.63;;;20.70;66.60;;;;;;5051031;28;20439;-72
2022/04/01 08:30:17;;;;;;;47.30;11.60;;;20.70;66.80;;;;;;5052159;28;20207;-79
2022/04/01 08:32:45;;;;;;;51.63;12.43;;;21.10;66.50;;;;;;5051303;28;20440;-72
2022/04/01 08:35:13;;;;;;;42.60;11.47;;;21.10;65.00;;;;;;5052098;28;20583;-75
2022/04/01 08:37:40;;;;;;;38.40;11.27;;;21.20;65.80;;;;;;5051894;28;20449;-75
2022/04/01 08:40:10;;;;;;;47.22;10.57;;;21.60;65.50;;;;;;5051038;28;20443;-75
2022/04/01 08:42:37;;;;;;;41.97;11.10;;;21.40;63.80;;;;;;5052153;28;20237;-72
2022/04/01 08:45:06;;;;;;;52.47;13.35;;;21.60;64.00;;;;;;5051236;28;20483;-74
2022/04/01 08:47:36;;;;;;;45.30;11.40;;;21.50;64.50;;;;;;5050937;28;20508;-75
2022/04/01 08:50:05;;;;;;;47.77;11.27;;;21.40;65.10;;;;;;5051638;28;20211;-75
2022/04/01 08:52:33;;;;;;;42.65;12.27;;;21.40;65.20;;;;;;5049986;28;20926;-73
2022/04/01 08:55:05;;;;;;;51.63;14.47;;;21.50;66.00;;;;;;5050968;28;20203;-76
2022/04/01 08:57:36;;;;;;;48.17;10.80;;;21.20;66.20;;;;;;5051655;28;20564;-74
2022/04/01 09:00:31;;;;;;;45.53;11.90;;;21.00;66.30;;;;;;5051404;28;20454;-73
2022/04/01 09:03:00;;;;;;;35.70;10.30;;;20.70;67.10;;;;;;5051299;28;20480;-73
2022/04/01 09:05:29;;;;;;;44.67;10.57;;;20.80;67.70;;;;;;5051201;28;20599;-71
2022/04/01 09:08:01;;;;;;;43.08;12.00;;;21.10;67.20;;;;;;5051176;28;20444;-72
2022/04/01 09:10:28;;;;;;;56.73;13.73;;;20.90;67.80;;;;;;5051534;28;20211;-75
2022/04/01 09:12:56;;;;;;;53.37;10.83;;;20.80;68.80;;;;;;5051111;28;20481;-73
2022/04/01 09:15:23;;;;;;;47.60;12.23;;;21.20;68.70;;;;;;5051584;28;20446;-73
2022/04/01 09:17:51;;;;;;;51.33;11.93;;;21.60;68.00;;;;;;5050465;28;20454;-75
2022/04/01 09:20:19;;;;;;;33.33;10.23;;;21.80;67.30;;;;;;5051261;28;20953;-76
2022/04/01 09:22:47;;;;;;;60.57;14.93;;;22.20;67.60;;;;;;5050771;28;20501;-74
2022/04/01 09:25:16;;;;;;;42.27;12.00;;;22.40;65.00;;;;;;5050747;28;20918;-75
2022/04/01 09:27:46;;;;;;;53.67;12.73;;;22.20;65.70;;;;;;5051137;28;21048;-75
2022/04/01 09:30:16;;;;;;;47.27;10.57;;;22.30;66.00;;;;;;5050942;28;20461;-77
2022/04/01 09:32:45;;;;;;;46.87;11.73;;;22.80;65.80;;;;;;5051037;28;21081;-74
2022/04/01 09:35:13;;;;;;;49.40;11.17;;;23.20;64.20;;;;;;5051161;28;20454;-72
2022/04/01 09:37:42;;;;;;;57.57;11.40;;;23.60;64.10;;;;;;5050598;28;20453;-75
2022/04/01 09:40:13;;;;;;;47.93;11.70;;;23.90;62.90;;;;;;5050529;28;20493;-72
2022/04/01 09:42:47;;;;;;;37.50;10.07;;;23.70;62.20;;;;;;5051102;28;20473;-73
2022/04/01 09:45:17;;;;;;;37.73;10.20;;;23.30;63.30;;;;;;5051108;28;20489;-72
2022/04/01 09:47:45;;;;;;;42.90;10.47;;;23.40;64.30;;;;;;5050206;28;20950;-74
2022/04/01 09:50:18;;;;;;;54.43;12.50;;;23.30;62.40;;;;;;5050530;28;20788;-71
2022/04/01 09:52:46;;;;;;;39.87;11.17;;;23.60;62.00;;;;;;5050442;28;20828;-73
2022/04/01 09:55:15;;;;;;;45.97;10.53;;;24.00;61.60;;;;;;5050426;28;20954;-72
2022/04/01 09:57:42;;;;;;;41.07;10.80;;;24.50;60.70;;;;;;5050669;28;20458;-74
2022/04/01 10:00:11;;;;;;;34.97;11.30;;;24.90;60.30;;;;;;5050423;28;20458;-71
2022/04/01 10:02:39;;;;;;;43.77;11.53;;;25.20;59.10;;;;;;5048541;28;20498;-75
2022/04/01 10:05:07;;;;;;;33.20;10.50;;;25.50;58.20;;;;;;5052090;28;20485;-75
2022/04/01 10:07:35;;;;;;;40.10;10.20;;;25.60;57.70;;;;;;5054827;28;20501;-75
2022/04/01 10:10:06;;;;;;;40.73;10.70;;;25.80;57.90;;;;;;5053535;28;20453;-72
2022/04/01 10:12:41;;;;;;;42.87;11.37;;;25.80;56.90;;;;;;5055191;28;20489;-73
2022/04/01 10:15:10;;;;;;;32.97;10.57;;;25.60;56.30;;;;;;5051578;28;20493;-75
2022/04/01 10:17:40;;;;;;;39.97;10.97;;;25.80;55.40;;;;;;5049963;28;20930;-74
2022/04/01 10:20:08;;;;;;;40.40;10.77;;;25.50;55.20;;;;;;5050295;28;20560;-72
2022/04/01 10:22:36;;;;;;;43.77;9.50;;;25.30;55.10;;;;;;5049976;28;20486;-74
2022/04/01 10:25:09;;;;;;;47.67;10.97;;;25.40;54.90;;;;;;5050261;28;20508;-75
2022/04/01 10:27:40;;;;;;;43.13;11.03;;;25.60;54.90;;;;;;5049933;28;20600;-75
2022/04/01 10:30:09;;;;;;;38.00;12.83;;;25.60;54.70;;;;;;5050165;28;20590;-76
2022/04/01 10:32:41;;;;;;;45.33;11.47;;;25.00;54.50;;;;;;5049755;28;20477;-75
2022/04/01 10:35:21;;;;;;;52.43;11.50;;;25.30;54.60;;;;;;5049970;28;20453;-76
2022/04/01 10:37:53;;;;;;;43.57;11.30;;;25.70;54.90;;;;;;5050174;28;20449;-76
2022/04/01 10:40:21;;;;;;;51.63;11.13;;;26.20;55.00;;;;;;5049741;28;20489;-73
2022/04/01 10:42:49;;;;;;;55.03;11.60;;;26.30;55.00;;;;;;5049360;28;20962;-72
2022/04/01 10:45:25;;;;;;;37.67;10.43;;;26.60;54.10;;;;;;5049743;28;20462;-72
2022/04/01 10:53:35;;;;;;;44.17;10.67;;;27.00;52.50;;;;;;5049319;28;20495;-74
2022/04/01 10:56:28;;;;;;;47.33;12.63;;;27.30;52.10;;;;;;5049645;28;20449;-81
2022/04/01 10:59:04;;;;;;;35.43;10.70;;;27.40;51.50;;;;;;5038935;28;20465;-72
2022/04/01 11:01:32;;;;;;;46.50;10.57;;;27.20;51.50;;;;;;5049035;28;20831;-76
2022/04/01 11:04:03;;;;;;;43.23;11.07;;;27.50;50.50;;;;;;5049086;28;20476;-73
2022/04/01 11:06:30;;;;;;;33.83;10.33;;;27.90;50.00;;;;;;5049465;28;20489;-71
2022/04/01 11:08:57;;;;;;;40.33;10.47;;;28.10;49.70;;;;;;5049312;28;20468;-75
2022/04/01 11:11:25;;;;;;;30.27;9.87;;;28.30;49.70;;;;;;5049411;28;20482;-74
2022/04/01 11:14:07;;;;;;;37.53;11.37;;;28.50;49.10;;;;;;5049256;28;20481;-76
2022/04/01 11:16:47;;;;;;;52.07;10.60;;;28.90;48.50;;;;;;5047537;28;20969;-70
2022/04/01 11:19:18;;;;;;;42.23;10.83;;;29.40;47.20;;;;;;5049269;28;20458;-76
2022/04/01 11:21:47;;;;;;;37.30;11.13;;;29.70;46.70;;;;;;5049381;28;20458;-75
2022/04/01 11:24:41;;;;;;;34.83;9.50;;;29.90;45.50;;;;;;5049077;28;20482;-72
2022/04/01 11:27:23;;;;;;;32.33;9.10;;;29.40;45.10;;;;;;5039507;28;20933;-72
2022/04/01 11:30:08;;;;;;;36.77;11.37;;;28.50;46.20;;;;;;5049097;28;20520;-74
2022/04/01 11:32:36;;;;;;;41.50;11.47;;;28.10;45.90;;;;;;5048581;28;20515;-75
2022/04/01 11:35:04;;;;;;;27.17;8.90;;;27.30;46.50;;;;;;5048996;28;20457;-72
2022/04/01 11:37:36;;;;;;;37.70;7.77;;;26.20;46.10;;;;;;5048879;28;20445;-71
2022/04/01 11:40:11;;;;;;;23.27;7.00;;;25.50;47.20;;;;;;5048495;28;20571;-77
2022/04/01 11:42:51;;;;;;;21.37;7.10;;;25.40;47.90;;;;;;5048694;28;20465;-75
2022/04/01 11:45:20;;;;;;;21.50;7.47;;;25.20;48.60;;;;;;5048649;28;20949;-74
2022/04/01 11:47:48;;;;;;;33.00;8.67;;;24.60;49.40;;;;;;5048167;28;20551;-76
2022/04/01 11:50:18;;;;;;;34.20;6.80;;;24.40;50.10;;;;;;5048719;28;20520;-76
2022/04/01 11:52:47;;;;;;;35.40;7.57;;;24.10;50.00;;;;;;5048532;28;20478;-74
2022/04/01 11:55:16;;;;;;;35.43;8.00;;;23.90;50.40;;;;;;5048915;28;20450;-71
2022/04/01 11:57:44;;;;;;;36.27;10.00;;;23.30;51.70;;;;;;5048518;28;20450;-74
2022/04/01 12:00:13;;;;;;;31.77;9.20;;;22.60;58.90;;;;;;5048201;28;20929;-73
2022/04/01 12:02:44;;;;;;;29.13;7.37;;;22.10;61.70;;;;;;5048731;28;20485;-72
2022/04/01 12:05:11;;;;;;;37.13;13.23;;;21.90;64.50;;;;;;5048760;28;20453;-74
2022/04/01 12:10:25;;;;;;;29.00;9.03;;;21.60;67.70;;;;;;5048526;28;20433;-74
2022/04/01 12:13:00;;;;;;;29.73;8.50;;;21.60;68.00;;;;;;5048464;28;20470;-74
2022/04/01 12:15:35;;;;;;;26.93;10.03;;;21.50;68.90;;;;;;5047868;28;20523;-70
2022/04/01 12:18:05;;;;;;;32.27;10.50;;;21.40;69.80;;;;;;5048598;28;20468;-73
2022/04/01 12:20:33;;;;;;;43.17;10.73;;;21.30;69.70;;;;;;5048194;28;20462;-75
2022/04/01 12:23:01;;;;;;;39.03;8.97;;;21.30;70.00;;;;;;5048050;28;20481;-73
2022/04/01 12:25:33;;;;;;;32.17;9.50;;;21.30;70.10;;;;;;5048607;28;20464;-75
2022/04/01 12:28:04;;;;;;;43.40;9.40;;;21.00;72.40;;;;;;5048309;28;20800;-74
2022/04/01 12:30:33;;;;;;;33.87;11.20;;;20.80;74.00;;;;;;5049979;28;20802;-77
2022/04/01 12:33:04;;;;;;;34.30;8.80;;;20.60;76.10;;;;;;5051708;28;20504;-74
2022/04/01 12:35:31;;;;;;;38.77;11.20;;;20.40;77.80;;;;;;5051774;28;20461;-75
2022/04/01 12:38:04;;;;;;;38.90;9.63;;;20.30;79.30;;;;;;5051958;28;20448;-73
2022/04/01 12:40:35;;;;;;;34.38;10.27;;;20.20;79.30;;;;;;5051121;28;20454;-72
2022/04/01 12:43:02;;;;;;;37.87;11.30;;;19.80;82.80;;;;;;5051985;28;20270;-76
2022/04/01 12:45:29;;;;;;;30.07;9.60;;;19.70;86.10;;;;;;5051572;28;20465;-75
2022/04/01 12:47:56;;;;;;;32.93;7.87;;;20.10;86.70;;;;;;5051389;28;20505;-75
2022/04/01 12:50:35;;;;;;;24.63;7.70;;;20.50;74.40;;;;;;5051815;28;20453;-77
2022/04/01 12:53:09;;;;;;;28.23;8.67;;;20.90;75.60;;;;;;5051838;28;20500;-72
2022/04/01 12:55:36;;;;;;;34.67;8.90;;;21.10;75.70;;;;;;5052058;28;20457;-75
2022/04/01 12:58:08;;;;;;;28.70;8.13;;;21.00;74.20;;;;;;5051718;28;20454;-73
2022/04/01 13:00:35;;;;;;;31.73;8.67;;;21.30;73.60;;;;;;5051437;28;20457;-75